Portada
METAR-TAF:

METAR-TAF

Aeroports :

Mosinee, Wisconsin, Estats Units d'Amèrica

latitud: 44-47N, longitud: 089-40W, altitud: 389 m

Observació

L'informe es va fer fa 49 minuts, a les 00:47 UTC
Vent 6 kt del Nord
Temperatura -13°C
Humitat 56%
Pressió 1022 hPa
Visibilitat: 16.1 km
Cel clar

METAR: KCWA 200047Z 35006KT 10SM SKC M13/M20 A3018

Hora: 19:36 (01:36 UTC)

Pronòstic

L'informe es va fer fa 1 hora i 57 minuts, a les 23:39 UTC
Pronòstic vàlid del 20 a les 00 UTC al 20 a les 24 UTC
Vent 6 kt del Nord/Nord-Oest
Visibilitat: 10 km
Cel clar
A partir de les 20 a les 1600 UTC
Vent 7 kt del Nord
Visibilitat: 10 km
Escasses núvols a una alçada de 5000 ft
A partir de les 20 a les 2300 UTC
Vent 4 kt del Nord/Nord-Est
Visibilitat: 10 km
Núvols disperses a una alçada de 15000 ft

TAF: KCWA 192339Z 2000/2024 34006KT P6SM SKC FM201600 36007KT P6SM FEW050 FM202300 02004KT P6SM SCT150 AMD LTD TO CLD VIS AND WIND 2004/2012

Observacions i pronòstics meteorològics de més de 4000 aeroports (METAR i TAF).

Les estacions disponibles són els punts grocs i vermells al mapa.

Posi el ratolí al punt desitjat per veure el nom de l'estació.

Feu clic per veure les observacions i els pronòstics meteorològics.

Per canviar el mapa: feu clic els botons verds amb una creu de color negre per apropar; al botó verd amb un guió per allunyar la imatge; o en les fletxes verdes per a mapes adjacents.


METAR-TAF: